sensor_id;sensor_type;location;lat;lon;timestamp;pressure;altitude;pressure_sealevel;temperature
68588;BMP180;55560;52.174;20.996;2023-01-28T09:06:50;101336.20;;;3.00
68588;BMP180;55560;52.174;20.996;2023-01-28T09:09:19;101334.60;;;3.00
68588;BMP180;55560;52.174;20.996;2023-01-28T09:11:46;101339.60;;;3.00
68588;BMP180;55560;52.174;20.996;2023-01-28T09:14:14;101344.00;;;3.00
68588;BMP180;55560;52.174;20.996;2023-01-28T09:16:42;101338.40;;;3.00
68588;BMP180;55560;52.174;20.996;2023-01-28T09:19:10;101347.00;;;3.00
68588;BMP180;55560;52.174;20.996;2023-01-28T09:21:39;101344.20;;;3.00
68588;BMP180;55560;52.174;20.996;2023-01-28T09:24:10;101350.20;;;2.96
68588;BMP180;55560;52.174;20.996;2023-01-28T09:26:38;101348.40;;;3.00
68588;BMP180;55560;52.174;20.996;2023-01-28T09:29:06;101360.00;;;3.00
68588;BMP180;55560;52.174;20.996;2023-01-28T09:31:34;101359.80;;;3.00
68588;BMP180;55560;52.174;20.996;2023-01-28T09:34:02;101364.00;;;3.04
68588;BMP180;55560;52.174;20.996;2023-01-28T09:36:30;101361.60;;;3.04
68588;BMP180;55560;52.174;20.996;2023-01-28T09:38:59;101359.60;;;3.06
68588;BMP180;55560;52.174;20.996;2023-01-28T09:47:03;101365.60;;;3.00
68588;BMP180;55560;52.174;20.996;2023-01-28T09:49:44;101362.60;;;3.00
68588;BMP180;55560;52.174;20.996;2023-01-28T09:52:16;101353.40;;;3.00
68588;BMP180;55560;52.174;20.996;2023-01-28T09:54:54;101358.40;;;3.00
68588;BMP180;55560;52.174;20.996;2023-01-28T09:57:25;101353.60;;;2.90
68588;BMP180;55560;52.174;20.996;2023-01-28T09:59:54;101357.20;;;2.90
68588;BMP180;55560;52.174;20.996;2023-01-28T10:03:07;101354.80;;;2.84
68588;BMP180;55560;52.174;20.996;2023-01-28T10:06:08;101350.20;;;2.80
68588;BMP180;55560;52.174;20.996;2023-01-28T10:12:03;101341.40;;;2.80
68588;BMP180;55560;52.174;20.996;2023-01-28T10:17:42;101339.20;;;2.70
68588;BMP180;55560;52.174;20.996;2023-01-28T10:22:50;101334.60;;;2.72
68588;BMP180;55560;52.174;20.996;2023-01-28T10:25:27;101336.40;;;2.78
68588;BMP180;55560;52.174;20.996;2023-01-28T10:27:57;101334.80;;;2.80
68588;BMP180;55560;52.174;20.996;2023-01-28T10:30:30;101335.80;;;2.80
68588;BMP180;55560;52.174;20.996;2023-01-28T10:35:37;101332.40;;;2.80
68588;BMP180;55560;52.174;20.996;2023-01-28T10:38:11;101327.40;;;2.80
68588;BMP180;55560;52.174;20.996;2023-01-28T10:40:41;101331.20;;;2.80
68588;BMP180;55560;52.174;20.996;2023-01-28T10:43:10;101333.40;;;2.80
68588;BMP180;55560;52.174;20.996;2023-01-28T10:46:09;101332.20;;;2.80
68588;BMP180;55560;52.174;20.996;2023-01-28T10:49:02;101324.80;;;2.80
68588;BMP180;55560;52.174;20.996;2023-01-28T10:51:36;101322.80;;;2.90
68588;BMP180;55560;52.174;20.996;2023-01-28T10:54:24;101328.40;;;2.90
68588;BMP180;55560;52.174;20.996;2023-01-28T10:57:17;101322.80;;;2.90
68588;BMP180;55560;52.174;20.996;2023-01-28T10:59:45;101316.20;;;2.94
68588;BMP180;55560;52.174;20.996;2023-01-28T11:02:40;101323.40;;;3.00
68588;BMP180;55560;52.174;20.996;2023-01-28T11:05:24;101326.60;;;3.00
68588;BMP180;55560;52.174;20.996;2023-01-28T11:08:14;101323.20;;;3.00
68588;BMP180;55560;52.174;20.996;2023-01-28T11:10:44;101315.80;;;3.10
68588;BMP180;55560;52.174;20.996;2023-01-28T11:13:24;101318.20;;;3.10
68588;BMP180;55560;52.174;20.996;2023-01-28T11:16:16;101318.60;;;3.04
68588;BMP180;55560;52.174;20.996;2023-01-28T11:18:59;101317.20;;;3.00
68588;BMP180;55560;52.174;20.996;2023-01-28T11:21:30;101307.00;;;3.00
68588;BMP180;55560;52.174;20.996;2023-01-28T11:24:29;101314.20;;;2.98
68588;BMP180;55560;52.174;20.996;2023-01-28T11:27:12;101308.80;;;2.94
68588;BMP180;55560;52.174;20.996;2023-01-28T11:29:42;101304.60;;;2.98
68588;BMP180;55560;52.174;20.996;2023-01-28T11:32:20;101303.40;;;2.90
68588;BMP180;55560;52.174;20.996;2023-01-28T11:34:54;101303.80;;;2.90
68588;BMP180;55560;52.174;20.996;2023-01-28T11:37:27;101310.20;;;2.90
68588;BMP180;55560;52.174;20.996;2023-01-28T11:40:23;101304.20;;;2.90
68588;BMP180;55560;52.174;20.996;2023-01-28T11:42:55;101300.80;;;2.90
68588;BMP180;55560;52.174;20.996;2023-01-28T11:45:43;101295.40;;;3.00
68588;BMP180;55560;52.174;20.996;2023-01-28T11:48:40;101297.80;;;2.98
68588;BMP180;55560;52.174;20.996;2023-01-28T11:51:41;101295.40;;;3.00
68588;BMP180;55560;52.174;20.996;2023-01-28T12:03:32;101295.80;;;3.10
68588;BMP180;55560;52.174;20.996;2023-01-28T12:06:44;101289.60;;;3.10
68588;BMP180;55560;52.174;20.996;2023-01-28T12:15:20;101289.60;;;3.06
68588;BMP180;55560;52.174;20.996;2023-01-28T12:18:16;101294.20;;;3.10
68588;BMP180;55560;52.174;20.996;2023-01-28T12:24:07;101282.20;;;3.10
68588;BMP180;55560;52.174;20.996;2023-01-28T12:26:48;101293.20;;;3.10
68588;BMP180;55560;52.174;20.996;2023-01-28T12:29:30;101290.20;;;3.10
68588;BMP180;55560;52.174;20.996;2023-01-28T12:35:04;101286.60;;;3.10
68588;BMP180;55560;52.174;20.996;2023-01-28T12:38:01;101289.40;;;3.10
68588;BMP180;55560;52.174;20.996;2023-01-28T12:41:09;101290.40;;;3.10
68588;BMP180;55560;52.174;20.996;2023-01-28T12:52:00;101276.00;;;3.08
68588;BMP180;55560;52.174;20.996;2023-01-28T12:54:39;101280.80;;;3.00
68588;BMP180;55560;52.174;20.996;2023-01-28T12:57:18;101285.20;;;3.00
68588;BMP180;55560;52.174;20.996;2023-01-28T13:03:18;101295.40;;;3.00
68588;BMP180;55560;52.174;20.996;2023-01-28T13:05:58;101292.80;;;3.00
68588;BMP180;55560;52.174;20.996;2023-01-28T13:08:28;101291.20;;;3.00
68588;BMP180;55560;52.174;20.996;2023-01-28T13:10:59;101289.80;;;3.00
68588;BMP180;55560;52.174;20.996;2023-01-28T13:13:36;101288.00;;;3.00
68588;BMP180;55560;52.174;20.996;2023-01-28T13:16:07;101286.80;;;3.00
68588;BMP180;55560;52.174;20.996;2023-01-28T13:24:03;101288.40;;;3.00
68588;BMP180;55560;52.174;20.996;2023-01-28T13:26:45;101292.60;;;3.00
68588;BMP180;55560;52.174;20.996;2023-01-28T13:31:47;101292.60;;;3.00
68588;BMP180;55560;52.174;20.996;2023-01-28T13:34:42;101286.40;;;3.00
68588;BMP180;55560;52.174;20.996;2023-01-28T13:37:36;101290.80;;;3.00
68588;BMP180;55560;52.174;20.996;2023-01-28T13:40:27;101295.60;;;3.00
68588;BMP180;55560;52.174;20.996;2023-01-28T13:43:22;101293.80;;;3.00
68588;BMP180;55560;52.174;20.996;2023-01-28T13:46:01;101300.20;;;3.00
68588;BMP180;55560;52.174;20.996;2023-01-28T13:48:52;101301.20;;;3.00
68588;BMP180;55560;52.174;20.996;2023-01-28T13:51:36;101294.80;;;3.00
68588;BMP180;55560;52.174;20.996;2023-01-28T13:54:18;101301.20;;;3.00
68588;BMP180;55560;52.174;20.996;2023-01-28T14:02:51;101300.60;;;3.00
68588;BMP180;55560;52.174;20.996;2023-01-28T14:11:45;101295.60;;;3.00
68588;BMP180;55560;52.174;20.996;2023-01-28T14:20:45;101285.60;;;2.90
68588;BMP180;55560;52.174;20.996;2023-01-28T14:23:18;101290.40;;;2.90
68588;BMP180;55560;52.174;20.996;2023-01-28T14:28:49;101294.80;;;2.80
68588;BMP180;55560;52.174;20.996;2023-01-28T14:31:26;101298.40;;;2.80
68588;BMP180;55560;52.174;20.996;2023-01-28T14:34:10;101298.00;;;2.78
68588;BMP180;55560;52.174;20.996;2023-01-28T14:36:43;101298.40;;;2.70
68588;BMP180;55560;52.174;20.996;2023-01-28T14:39:27;101298.60;;;2.70
68588;BMP180;55560;52.174;20.996;2023-01-28T14:41:59;101296.40;;;2.70
68588;BMP180;55560;52.174;20.996;2023-01-28T14:44:38;101297.20;;;2.70
68588;BMP180;55560;52.174;20.996;2023-01-28T14:47:40;101295.20;;;2.72
68588;BMP180;55560;52.174;20.996;2023-01-28T14:59:41;101296.00;;;2.80
68588;BMP180;55560;52.174;20.996;2023-01-28T15:02:28;101296.20;;;2.80
68588;BMP180;55560;52.174;20.996;2023-01-28T15:05:19;101300.20;;;2.72
68588;BMP180;55560;52.174;20.996;2023-01-28T15:07:49;101300.40;;;2.80
68588;BMP180;55560;52.174;20.996;2023-01-28T15:10:32;101301.80;;;2.76
68588;BMP180;55560;52.174;20.996;2023-01-28T15:13:15;101304.00;;;2.70
68588;BMP180;55560;52.174;20.996;2023-01-28T15:15:46;101303.60;;;2.70
68588;BMP180;55560;52.174;20.996;2023-01-28T15:18:36;101305.20;;;2.70
68588;BMP180;55560;52.174;20.996;2023-01-28T15:21:04;101308.20;;;2.70
68588;BMP180;55560;52.174;20.996;2023-01-28T15:23:34;101310.00;;;2.70
68588;BMP180;55560;52.174;20.996;2023-01-28T15:26:16;101310.20;;;2.72
68588;BMP180;55560;52.174;20.996;2023-01-28T15:28:48;101313.80;;;2.70
68588;BMP180;55560;52.174;20.996;2023-01-28T15:31:34;101317.20;;;2.70
68588;BMP180;55560;52.174;20.996;2023-01-28T15:34:15;101317.40;;;2.76
68588;BMP180;55560;52.174;20.996;2023-01-28T15:36:46;101321.20;;;2.80
68588;BMP180;55560;52.174;20.996;2023-01-28T15:39:20;101315.80;;;2.80
68588;BMP180;55560;52.174;20.996;2023-01-28T15:42:00;101319.60;;;2.76
68588;BMP180;55560;52.174;20.996;2023-01-28T15:44:34;101324.60;;;2.70
68588;BMP180;55560;52.174;20.996;2023-01-28T15:49:44;101326.60;;;2.70
68588;BMP180;55560;52.174;20.996;2023-01-28T15:52:13;101327.20;;;2.70
68588;BMP180;55560;52.174;20.996;2023-01-28T15:54:49;101328.40;;;2.70
68588;BMP180;55560;52.174;20.996;2023-01-28T15:57:26;101334.80;;;2.70
68588;BMP180;55560;52.174;20.996;2023-01-28T16:00:14;101329.80;;;2.70
68588;BMP180;55560;52.174;20.996;2023-01-28T16:02:51;101331.40;;;2.70
68588;BMP180;55560;52.174;20.996;2023-01-28T16:06:00;101328.20;;;2.70
68588;BMP180;55560;52.174;20.996;2023-01-28T16:08:59;101323.60;;;2.70
68588;BMP180;55560;52.174;20.996;2023-01-28T16:11:33;101329.40;;;2.70
68588;BMP180;55560;52.174;20.996;2023-01-28T16:14:02;101332.00;;;2.64
68588;BMP180;55560;52.174;20.996;2023-01-28T16:16:36;101334.00;;;2.60
68588;BMP180;55560;52.174;20.996;2023-01-28T16:19:06;101338.60;;;2.60
68588;BMP180;55560;52.174;20.996;2023-01-28T16:21:37;101341.00;;;2.56
68588;BMP180;55560;52.174;20.996;2023-01-28T16:24:30;101345.00;;;2.50
68588;BMP180;55560;52.174;20.996;2023-01-28T16:27:24;101342.20;;;2.50
